createdAt,value
2022-12-12T00:00:43.422Z,100.00
2022-12-12T00:03:10.625Z,100.00
2022-12-12T00:05:37.849Z,99.62
2022-12-12T00:08:04.906Z,99.99
2022-12-12T00:10:32.149Z,99.87
2022-12-12T00:12:59.109Z,99.80
2022-12-12T00:15:25.821Z,99.98
2022-12-12T00:17:52.491Z,99.74
2022-12-12T00:20:19.297Z,99.61
2022-12-12T00:22:46.394Z,99.41
2022-12-12T00:25:13.670Z,99.38
2022-12-12T00:27:40.564Z,99.37
2022-12-12T00:30:07.769Z,99.27
2022-12-12T00:32:34.860Z,98.06
2022-12-12T00:35:01.613Z,98.23
2022-12-12T00:37:28.280Z,97.89
2022-12-12T00:39:54.957Z,98.53
2022-12-12T00:42:21.620Z,98.56
2022-12-12T00:44:48.261Z,98.45
2022-12-12T00:47:14.895Z,98.11
2022-12-12T00:49:41.535Z,98.19
2022-12-12T00:52:08.154Z,98.38
2022-12-12T00:54:34.800Z,98.54
2022-12-12T00:57:01.500Z,98.44
2022-12-12T00:59:28.157Z,97.79
2022-12-12T01:01:54.855Z,98.17
2022-12-12T01:04:21.534Z,98.35
2022-12-12T01:06:48.180Z,98.12
2022-12-12T01:09:14.868Z,97.55
2022-12-12T01:11:41.528Z,97.33
2022-12-12T01:14:08.270Z,96.37
2022-12-12T01:16:34.987Z,95.97
2022-12-12T01:19:01.769Z,96.29
2022-12-12T01:21:28.443Z,96.27
2022-12-12T01:23:55.286Z,95.95
2022-12-12T01:26:24.850Z,96.36
2022-12-12T01:28:52.417Z,96.68
2022-12-12T01:31:19.269Z,96.71
2022-12-12T01:33:46.528Z,97.04
2022-12-12T01:36:16.701Z,96.61
2022-12-12T01:38:48.196Z,96.78
2022-12-12T01:41:16.246Z,96.51
2022-12-12T01:43:43.075Z,96.88
2022-12-12T01:46:33.421Z,97.06
2022-12-12T01:49:17.799Z,96.98
2022-12-12T01:51:45.309Z,96.76
2022-12-12T01:54:16.777Z,96.86
2022-12-12T01:56:45.125Z,97.02
2022-12-12T01:59:14.031Z,96.79
2022-12-12T02:01:41.561Z,96.86
2022-12-12T02:04:10.462Z,97.03
2022-12-12T02:06:38.325Z,97.55
2022-12-12T02:09:09.707Z,97.47
2022-12-12T02:11:43.300Z,97.65
2022-12-12T02:14:10.303Z,97.96
2022-12-12T02:17:12.076Z,97.86
2022-12-12T02:19:49.415Z,98.65
2022-12-12T02:22:55.928Z,98.31
2022-12-12T02:25:53.230Z,98.02
2022-12-12T02:28:19.898Z,98.02
2022-12-12T02:31:21.673Z,97.60
2022-12-12T02:34:14.482Z,98.16
2022-12-12T02:37:03.215Z,98.51
2022-12-12T02:39:47.836Z,98.04
2022-12-12T02:42:30.881Z,98.09
2022-12-12T02:45:09.889Z,98.46
2022-12-12T02:47:44.146Z,98.52
2022-12-12T02:50:18.550Z,98.65
2022-12-12T02:52:47.818Z,98.93
2022-12-12T02:55:16.860Z,98.64
2022-12-12T02:57:43.684Z,98.99
2022-12-12T03:00:13.795Z,98.96
2022-12-12T03:02:41.422Z,99.68
2022-12-12T03:05:44.914Z,99.49
2022-12-12T03:08:36.566Z,99.26
2022-12-12T03:11:11.492Z,99.48
2022-12-12T03:13:57.777Z,99.55
2022-12-12T03:16:39.768Z,99.16
2022-12-12T03:19:18.656Z,99.46
2022-12-12T03:21:55.457Z,99.25
2022-12-12T03:24:34.716Z,99.52
2022-12-12T03:27:10.563Z,99.54
2022-12-12T03:29:44.658Z,99.03
2022-12-12T03:32:17.268Z,99.99
2022-12-12T03:34:50.150Z,99.91
2022-12-12T03:37:21.369Z,100.00
2022-12-12T03:39:55.068Z,100.00
2022-12-12T03:42:27.931Z,100.00
2022-12-12T03:45:02.183Z,100.00
2022-12-12T03:47:38.983Z,100.00
2022-12-12T03:50:14.098Z,100.00
2022-12-12T03:52:48.007Z,100.00
2022-12-12T03:55:24.628Z,100.00
2022-12-12T03:58:08.649Z,100.00
2022-12-12T04:00:37.537Z,100.00
2022-12-12T04:03:19.177Z,100.00
2022-12-12T04:06:18.060Z,100.00
2022-12-12T04:09:06.141Z,100.00
2022-12-12T04:11:55.719Z,100.00
2022-12-12T04:14:52.976Z,100.00
2022-12-12T04:17:25.685Z,100.00
2022-12-12T04:20:16.231Z,100.00
2022-12-12T04:23:08.154Z,100.00
2022-12-12T04:26:02.330Z,100.00
2022-12-12T04:28:32.174Z,100.00
2022-12-12T04:31:04.992Z,100.00
2022-12-12T04:33:41.983Z,100.00
2022-12-12T04:36:12.154Z,100.00
2022-12-12T04:38:40.236Z,100.00
2022-12-12T04:41:09.186Z,100.00
2022-12-12T04:43:39.206Z,100.00
2022-12-12T04:46:10.872Z,100.00
2022-12-12T04:48:51.823Z,100.00
2022-12-12T04:51:28.600Z,100.00
2022-12-12T04:54:05.905Z,100.00
2022-12-12T04:56:36.893Z,100.00
2022-12-12T04:59:06.635Z,100.00
2022-12-12T05:01:55.155Z,100.00
2022-12-12T05:04:36.306Z,100.00
2022-12-12T05:07:10.541Z,100.00
2022-12-12T05:09:37.744Z,100.00
2022-12-12T05:12:04.978Z,100.00
2022-12-12T05:14:32.063Z,100.00
2022-12-12T05:17:05.427Z,100.00
2022-12-12T05:19:32.213Z,100.00
2022-12-12T05:21:58.952Z,100.00
2022-12-12T05:24:30.782Z,100.00
2022-12-12T05:26:58.642Z,100.00
2022-12-12T05:29:25.408Z,100.00
2022-12-12T05:31:52.166Z,100.00
2022-12-12T05:34:18.873Z,100.00
2022-12-12T05:36:45.821Z,100.00
2022-12-12T05:39:12.469Z,100.00
2022-12-12T05:41:39.149Z,100.00
2022-12-12T05:44:05.978Z,100.00
2022-12-12T05:46:32.837Z,100.00
2022-12-12T05:48:59.598Z,100.00
2022-12-12T05:51:26.238Z,100.00
2022-12-12T05:53:52.955Z,100.00
2022-12-12T05:56:19.728Z,100.00
2022-12-12T05:58:47.134Z,100.00
2022-12-12T06:01:17.693Z,100.00
2022-12-12T06:03:54.608Z,100.00
2022-12-12T06:06:25.240Z,100.00
2022-12-12T06:08:51.926Z,100.00
2022-12-12T06:11:18.753Z,100.00
2022-12-12T06:13:54.225Z,100.00
2022-12-12T06:16:21.600Z,100.00
2022-12-12T06:18:52.846Z,100.00
2022-12-12T06:21:20.684Z,100.00
2022-12-12T06:23:47.862Z,100.00
2022-12-12T06:26:16.761Z,100.00
2022-12-12T06:28:44.204Z,100.00
2022-12-12T06:31:12.542Z,100.00
2022-12-12T06:33:41.061Z,100.00
2022-12-12T06:36:14.097Z,100.00
2022-12-12T06:38:41.466Z,100.00
2022-12-12T06:41:11.073Z,100.00
2022-12-12T06:43:37.999Z,100.00
2022-12-12T06:46:06.797Z,100.00
2022-12-12T06:48:34.913Z,100.00
2022-12-12T06:51:07.143Z,100.00
2022-12-12T06:53:33.855Z,100.00
2022-12-12T06:56:00.496Z,100.00
2022-12-12T06:58:27.130Z,100.00
2022-12-12T07:00:54.693Z,100.00
2022-12-12T07:03:21.363Z,100.00
2022-12-12T07:05:48.517Z,100.00
2022-12-12T07:08:16.460Z,100.00
2022-12-12T07:10:44.217Z,100.00
2022-12-12T07:13:14.440Z,100.00
2022-12-12T07:15:46.464Z,100.00
2022-12-12T07:18:14.222Z,100.00
2022-12-12T07:20:42.443Z,100.00
2022-12-12T07:23:09.942Z,100.00
2022-12-12T07:25:45.458Z,100.00
2022-12-12T07:28:13.823Z,100.00
2022-12-12T07:30:44.493Z,100.00
2022-12-12T07:33:12.348Z,100.00
2022-12-12T07:35:39.028Z,100.00
2022-12-12T07:38:06.194Z,100.00
2022-12-12T07:40:33.720Z,100.00
2022-12-12T07:43:00.827Z,100.00
2022-12-12T07:45:27.718Z,100.00
2022-12-12T07:47:54.817Z,100.00
2022-12-12T07:50:22.749Z,99.37
2022-12-12T07:52:49.463Z,99.39
2022-12-12T07:55:16.321Z,98.89
2022-12-12T07:57:42.981Z,98.41
2022-12-12T08:00:13.270Z,98.11
2022-12-12T08:02:40.479Z,97.59
2022-12-12T08:05:07.777Z,96.84
2022-12-12T08:07:34.444Z,95.78
2022-12-12T08:10:01.127Z,95.39
2022-12-12T08:12:30.028Z,94.22
2022-12-12T08:14:56.817Z,92.75
2022-12-12T08:17:23.609Z,91.70
2022-12-12T08:19:51.259Z,91.29
2022-12-12T08:22:17.962Z,91.04
2022-12-12T08:24:44.678Z,90.45
2022-12-12T08:27:15.490Z,90.72
2022-12-12T08:29:43.209Z,91.22
2022-12-12T08:32:09.890Z,91.36
2022-12-12T08:34:36.562Z,91.59
2022-12-12T08:37:03.498Z,91.24
2022-12-12T08:39:30.201Z,91.44
2022-12-12T08:41:56.810Z,91.21
2022-12-12T08:44:23.466Z,91.42
2022-12-12T08:46:50.774Z,91.55
2022-12-12T08:49:17.713Z,91.17
2022-12-12T08:51:44.427Z,91.39
2022-12-12T08:54:13.048Z,91.83
2022-12-12T08:56:40.550Z,92.07
2022-12-12T08:59:07.237Z,92.66
2022-12-12T09:01:34.003Z,92.39
2022-12-12T09:04:00.808Z,92.05
2022-12-12T09:06:27.787Z,91.65
2022-12-12T09:08:56.268Z,91.00
2022-12-12T09:11:23.570Z,91.63
2022-12-12T09:13:50.389Z,92.22
2022-12-12T09:16:17.253Z,92.43
2022-12-12T09:18:48.672Z,91.82
2022-12-12T09:21:16.935Z,92.15
2022-12-12T09:23:43.664Z,92.08
2022-12-12T09:26:10.609Z,92.52
2022-12-12T09:28:38.335Z,92.54
2022-12-12T09:31:07.484Z,92.96
2022-12-12T09:33:35.322Z,93.34
2022-12-12T09:36:05.058Z,93.78
2022-12-12T09:38:32.414Z,93.57
2022-12-12T09:41:11.747Z,93.54
2022-12-12T09:43:47.950Z,93.31
2022-12-12T09:46:27.724Z,93.21
2022-12-12T09:49:02.611Z,91.95
2022-12-12T09:51:29.303Z,89.86
2022-12-12T09:53:56.280Z,87.05
2022-12-12T09:56:31.957Z,85.55
2022-12-12T09:59:18.010Z,84.95
2022-12-12T10:02:13.031Z,84.47
2022-12-12T10:04:51.991Z,85.04
2022-12-12T10:07:27.134Z,86.04
2022-12-12T10:10:16.039Z,86.71
2022-12-12T10:12:44.271Z,87.22
2022-12-12T10:15:23.365Z,87.30
2022-12-12T10:17:50.456Z,87.36
2022-12-12T10:20:22.591Z,88.46
2022-12-12T10:22:56.412Z,88.54
2022-12-12T10:25:28.803Z,89.81
2022-12-12T10:28:09.184Z,89.58
2022-12-12T10:30:50.846Z,90.06
2022-12-12T10:33:41.160Z,88.80
2022-12-12T10:36:36.582Z,89.55
2022-12-12T10:39:10.074Z,89.60
2022-12-12T10:41:47.288Z,89.54
2022-12-12T10:44:22.060Z,90.43
2022-12-12T10:47:10.646Z,90.59
2022-12-12T10:49:37.909Z,91.16
2022-12-12T10:52:11.794Z,91.37
2022-12-12T10:54:46.628Z,90.71
2022-12-12T10:57:21.920Z,90.66
2022-12-12T10:59:51.491Z,90.38
2022-12-12T11:02:35.062Z,90.13
2022-12-12T11:05:17.463Z,90.10
2022-12-12T11:07:48.550Z,90.59
2022-12-12T11:10:35.947Z,90.32
2022-12-12T11:13:20.999Z,89.56
2022-12-12T11:15:56.606Z,89.35
2022-12-12T11:18:24.378Z,89.61
2022-12-12T11:21:12.299Z,89.95
2022-12-12T11:23:44.777Z,90.22
2022-12-12T11:26:20.385Z,90.65
2022-12-12T11:29:01.311Z,91.06
2022-12-12T11:31:32.878Z,92.00
2022-12-12T11:34:04.654Z,92.00
2022-12-12T11:36:35.606Z,92.21
2022-12-12T11:39:14.373Z,92.10
2022-12-12T11:41:57.323Z,92.04
2022-12-12T11:44:27.620Z,91.12
2022-12-12T11:46:54.323Z,90.72
2022-12-12T11:49:21.070Z,90.42
2022-12-12T11:51:48.360Z,90.64
2022-12-12T11:54:23.044Z,90.65
2022-12-12T11:57:03.447Z,91.85
2022-12-12T11:59:46.885Z,91.48
2022-12-12T12:02:31.481Z,91.61
2022-12-12T12:05:17.998Z,91.91
2022-12-12T12:07:55.717Z,91.29
2022-12-12T12:10:46.975Z,91.84
2022-12-12T12:13:37.957Z,90.27
2022-12-12T12:16:19.741Z,90.64
2022-12-12T12:19:13.863Z,90.28
2022-12-12T12:21:41.488Z,89.88
2022-12-12T12:24:29.057Z,91.06
2022-12-12T12:27:30.748Z,91.20
2022-12-12T12:30:21.320Z,89.61
2022-12-12T12:32:55.149Z,89.37
2022-12-12T12:35:31.731Z,90.14
2022-12-12T12:38:13.948Z,89.74
2022-12-12T12:40:55.993Z,88.87
2022-12-12T12:43:23.607Z,89.18
2022-12-12T12:45:57.668Z,88.95
2022-12-12T12:48:28.939Z,89.00
2022-12-12T12:51:18.525Z,89.28
2022-12-12T12:53:51.501Z,89.75
2022-12-12T12:56:38.575Z,89.76
2022-12-12T12:59:14.988Z,90.28
2022-12-12T13:01:45.705Z,89.81
2022-12-12T13:04:16.675Z,89.54
2022-12-12T13:06:52.357Z,89.22
2022-12-12T13:09:27.483Z,89.35
2022-12-12T13:12:01.648Z,88.39
2022-12-12T13:14:38.488Z,87.27
2022-12-12T13:17:07.961Z,85.63
2022-12-12T13:19:39.373Z,85.18
2022-12-12T13:22:07.020Z,84.52
2022-12-12T13:24:59.774Z,84.35
2022-12-12T13:27:29.626Z,85.09
2022-12-12T13:30:04.119Z,83.98
2022-12-12T13:33:06.012Z,83.24
2022-12-12T13:35:42.585Z,81.96
2022-12-12T13:38:20.480Z,82.05
2022-12-12T13:40:56.806Z,81.97
2022-12-12T13:43:30.991Z,81.07
2022-12-12T13:45:57.913Z,77.27
2022-12-12T13:48:45.940Z,72.35
2022-12-12T13:51:28.805Z,67.74
2022-12-12T13:54:13.851Z,65.75
2022-12-12T13:56:42.457Z,62.11
2022-12-12T13:59:25.468Z,59.51
2022-12-12T14:01:55.223Z,58.52
2022-12-12T14:04:27.529Z,56.73
2022-12-12T14:07:17.043Z,56.04
2022-12-12T14:09:49.554Z,55.93
2022-12-12T14:12:29.187Z,56.80
2022-12-12T14:15:06.291Z,57.38
2022-12-12T14:17:42.356Z,56.00
2022-12-12T14:20:25.522Z,59.16
2022-12-12T14:22:52.166Z,59.08
2022-12-12T14:25:29.141Z,62.09
2022-12-12T14:28:14.277Z,65.31
2022-12-12T14:30:50.516Z,66.25
2022-12-12T14:33:17.186Z,69.69
2022-12-12T14:36:04.677Z,72.16
2022-12-12T14:38:42.622Z,74.89
2022-12-12T14:41:16.404Z,76.61
2022-12-12T14:44:36.928Z,78.05
2022-12-12T14:46:42.286Z,79.58
2022-12-12T14:49:16.127Z,80.78
2022-12-12T14:51:45.447Z,81.23
2022-12-12T14:54:17.768Z,81.32
2022-12-12T14:56:53.267Z,81.99
2022-12-12T14:59:28.041Z,82.76
2022-12-12T15:01:58.834Z,82.80
2022-12-12T15:04:31.367Z,83.65
2022-12-12T15:06:59.809Z,83.81
2022-12-12T15:09:29.733Z,84.30
2022-12-12T15:12:11.700Z,84.52
2022-12-12T15:14:55.651Z,84.30
2022-12-12T15:17:44.145Z,83.96
2022-12-12T15:20:21.821Z,84.27
2022-12-12T15:22:53.232Z,84.54
2022-12-12T15:25:23.701Z,84.95
2022-12-12T15:27:56.758Z,84.56
2022-12-12T15:30:39.454Z,84.97
2022-12-12T15:33:14.767Z,85.13
2022-12-12T15:35:49.376Z,85.41
2022-12-12T15:38:16.198Z,85.87
2022-12-12T15:40:49.459Z,86.16
2022-12-12T15:43:23.332Z,86.19
2022-12-12T15:45:55.803Z,86.38
2022-12-12T15:48:23.572Z,85.97
2022-12-12T15:51:06.590Z,86.26
2022-12-12T15:53:37.777Z,86.45
2022-12-12T15:56:24.440Z,86.39
2022-12-12T15:58:53.816Z,86.15
2022-12-12T16:01:28.117Z,86.84
2022-12-12T16:03:59.298Z,86.54
2022-12-12T16:06:28.641Z,86.13
2022-12-12T16:09:10.573Z,86.03
2022-12-12T16:11:58.197Z,86.43
2022-12-12T16:14:24.873Z,86.36
2022-12-12T16:17:04.453Z,86.21
2022-12-12T16:19:52.855Z,86.85
2022-12-12T16:22:40.468Z,86.96
2022-12-12T16:25:27.625Z,87.10
2022-12-12T16:27:55.267Z,86.60
2022-12-12T16:30:22.244Z,86.34
2022-12-12T16:32:48.938Z,86.68
2022-12-12T16:35:18.433Z,86.66
2022-12-12T16:37:45.646Z,85.94
2022-12-12T16:40:15.682Z,86.57
2022-12-12T16:42:48.085Z,86.93
2022-12-12T16:45:14.727Z,87.04
2022-12-12T16:47:41.469Z,87.20
2022-12-12T16:50:08.353Z,87.27
2022-12-12T16:52:35.215Z,88.43
2022-12-12T16:55:02.056Z,88.69
2022-12-12T16:57:28.679Z,88.21
2022-12-12T16:59:55.306Z,88.62
2022-12-12T17:02:23.864Z,89.26
2022-12-12T17:04:51.508Z,89.17
2022-12-12T17:07:18.818Z,89.48
2022-12-12T17:09:45.738Z,89.90
2022-12-12T17:12:13.301Z,89.58
2022-12-12T17:14:40.342Z,89.70
2022-12-12T17:17:07.153Z,89.43
2022-12-12T17:19:34.537Z,89.92
2022-12-12T17:22:01.535Z,89.05
2022-12-12T17:24:28.631Z,88.44
2022-12-12T17:26:55.328Z,88.95
2022-12-12T17:29:22.762Z,89.62
2022-12-12T17:31:49.556Z,90.29
2022-12-12T17:34:16.318Z,89.90
2022-12-12T17:36:43.089Z,90.22
2022-12-12T17:39:11.232Z,90.42
2022-12-12T17:41:38.078Z,90.18
2022-12-12T17:44:05.136Z,89.96
2022-12-12T17:46:31.795Z,90.93
2022-12-12T17:48:59.659Z,90.71
2022-12-12T17:51:26.363Z,90.83
2022-12-12T17:53:53.270Z,91.15
2022-12-12T17:56:24.157Z,91.17
2022-12-12T17:58:50.913Z,90.59
2022-12-12T18:01:20.908Z,90.33
2022-12-12T18:03:48.697Z,90.58
2022-12-12T18:06:17.398Z,90.55
2022-12-12T18:08:44.743Z,91.42
2022-12-12T18:11:14.646Z,91.54
2022-12-12T18:13:42.185Z,91.17
2022-12-12T18:16:12.947Z,91.82
2022-12-12T18:18:40.240Z,91.97
2022-12-12T18:21:12.700Z,91.95
2022-12-12T18:23:41.188Z,92.45
2022-12-12T18:26:11.447Z,92.75
2022-12-12T18:28:38.172Z,93.31
2022-12-12T18:31:05.871Z,93.01
2022-12-12T18:33:32.921Z,92.10
2022-12-12T18:36:03.970Z,91.40
2022-12-12T18:38:31.846Z,90.78
2022-12-12T18:40:58.906Z,90.92
2022-12-12T18:43:27.740Z,91.01
2022-12-12T18:45:55.670Z,91.46
2022-12-12T18:48:22.671Z,92.03
2022-12-12T18:50:49.322Z,92.35
2022-12-12T18:53:16.548Z,92.73
2022-12-12T18:55:44.221Z,93.72
2022-12-12T18:58:12.088Z,94.24
2022-12-12T19:00:40.353Z,94.30
2022-12-12T19:03:08.338Z,95.12
2022-12-12T19:05:40.769Z,95.04
2022-12-12T19:08:08.500Z,94.66
2022-12-12T19:10:36.183Z,93.99
2022-12-12T19:13:03.388Z,94.02
2022-12-12T19:15:34.390Z,94.18
2022-12-12T19:18:01.115Z,94.09
2022-12-12T19:20:27.893Z,94.00
2022-12-12T19:22:54.606Z,94.04
2022-12-12T19:25:21.962Z,94.14
2022-12-12T19:27:48.623Z,93.84
2022-12-12T19:30:18.902Z,94.25
2022-12-12T19:32:48.960Z,93.99
2022-12-12T19:35:16.347Z,93.85
2022-12-12T19:37:43.014Z,93.81
2022-12-12T19:40:10.294Z,93.80
2022-12-12T19:42:37.121Z,93.70
2022-12-12T19:45:04.553Z,94.09
2022-12-12T19:47:33.361Z,93.02
2022-12-12T19:50:00.164Z,93.88
2022-12-12T19:52:27.526Z,94.40
2022-12-12T19:54:54.159Z,94.02
2022-12-12T19:57:25.663Z,94.20
2022-12-12T19:59:53.510Z,93.06
2022-12-12T20:02:20.682Z,92.51
2022-12-12T20:04:47.551Z,93.51
2022-12-12T20:07:14.290Z,94.38
2022-12-12T20:09:41.026Z,94.73
2022-12-12T20:12:07.762Z,94.66
2022-12-12T20:14:36.445Z,94.69
2022-12-12T20:17:03.518Z,94.34
2022-12-12T20:19:30.751Z,94.67
2022-12-12T20:22:00.687Z,94.36
2022-12-12T20:24:28.990Z,94.25
2022-12-12T20:26:56.161Z,93.79
2022-12-12T20:29:23.493Z,94.10
2022-12-12T20:31:50.778Z,94.30
2022-12-12T20:34:21.766Z,94.23
2022-12-12T20:36:48.561Z,94.16
2022-12-12T20:39:17.329Z,93.84
2022-12-12T20:41:45.069Z,93.02
2022-12-12T20:44:13.433Z,93.59
2022-12-12T20:46:44.012Z,93.87
2022-12-12T20:49:15.947Z,93.63
2022-12-12T20:51:59.181Z,93.92
2022-12-12T20:54:28.987Z,94.24
2022-12-12T20:56:57.246Z,94.03
2022-12-12T20:59:25.099Z,94.21
2022-12-12T21:01:52.553Z,93.83
2022-12-12T21:04:19.783Z,93.89
2022-12-12T21:06:48.747Z,93.75
2022-12-12T21:09:23.216Z,93.82
2022-12-12T21:11:53.009Z,93.98
2022-12-12T21:14:19.685Z,94.22
2022-12-12T21:16:46.508Z,94.23
2022-12-12T21:19:14.404Z,94.07
2022-12-12T21:21:43.286Z,93.86
2022-12-12T21:24:12.346Z,93.94
2022-12-12T21:26:39.119Z,93.59
2022-12-12T21:29:06.378Z,93.44
2022-12-12T21:31:36.847Z,93.32
2022-12-12T21:34:05.395Z,93.95
2022-12-12T21:36:33.390Z,93.64
2022-12-12T21:39:01.517Z,93.58
2022-12-12T21:41:28.717Z,93.61
2022-12-12T21:43:56.668Z,93.63
2022-12-12T21:46:25.578Z,93.54
2022-12-12T21:49:08.683Z,93.66
2022-12-12T21:51:35.644Z,93.77
2022-12-12T21:54:04.054Z,93.76
2022-12-12T21:56:31.276Z,94.26
2022-12-12T21:59:00.027Z,94.49
2022-12-12T22:01:27.604Z,94.47
2022-12-12T22:03:55.101Z,94.29
2022-12-12T22:06:24.344Z,94.59
2022-12-12T22:08:51.549Z,94.42
2022-12-12T22:11:40.167Z,94.30
2022-12-12T22:14:07.468Z,93.60
2022-12-12T22:16:34.968Z,93.73
2022-12-12T22:19:05.958Z,93.13
2022-12-12T22:21:34.847Z,93.33
2022-12-12T22:24:01.987Z,93.44
2022-12-12T22:26:30.240Z,93.76
2022-12-12T22:29:00.027Z,94.11
2022-12-12T22:31:29.369Z,92.96
2022-12-12T22:34:00.298Z,93.27
2022-12-12T22:36:29.432Z,93.73
2022-12-12T22:38:58.210Z,93.97
2022-12-12T22:41:25.534Z,93.43
2022-12-12T22:43:55.364Z,93.77
2022-12-12T22:46:22.748Z,93.90
2022-12-12T22:48:49.660Z,94.09
2022-12-12T22:51:19.134Z,94.01
2022-12-12T22:53:46.364Z,93.82
2022-12-12T22:56:14.233Z,93.47
2022-12-12T22:58:41.634Z,94.47
2022-12-12T23:01:10.568Z,94.89
2022-12-12T23:03:38.263Z,94.91
2022-12-12T23:06:09.384Z,95.50
2022-12-12T23:08:36.075Z,95.05
2022-12-12T23:11:07.651Z,94.60
2022-12-12T23:13:34.779Z,94.40
2022-12-12T23:16:08.468Z,94.80
2022-12-12T23:18:37.404Z,94.84
2022-12-12T23:21:06.403Z,95.38
2022-12-12T23:23:34.451Z,95.38
2022-12-12T23:26:06.595Z,95.10
2022-12-12T23:28:34.556Z,94.92
2022-12-12T23:31:04.991Z,94.85
2022-12-12T23:33:31.705Z,95.13
2022-12-12T23:35:58.377Z,95.18
2022-12-12T23:38:25.064Z,95.08
2022-12-12T23:40:51.734Z,94.43
2022-12-12T23:43:18.395Z,94.32
2022-12-12T23:45:45.197Z,94.35
2022-12-12T23:48:11.947Z,94.24
2022-12-12T23:50:38.598Z,93.97
2022-12-12T23:53:10.422Z,94.14
2022-12-12T23:55:37.397Z,94.12
2022-12-12T23:58:04.058Z,94.06
